createdAt,value
2023-10-11T00:00:59.938Z,101444.84
2023-10-11T00:06:07.464Z,101452.78
2023-10-11T00:11:11.278Z,101450.09
2023-10-11T00:16:18.143Z,101445.63
2023-10-11T00:21:36.683Z,101449.22
2023-10-11T00:26:41.527Z,101439.41
2023-10-11T00:31:46.752Z,101446.53
2023-10-11T00:36:51.270Z,101436.81
2023-10-11T00:41:55.075Z,101443.88
2023-10-11T00:47:01.422Z,101432.34
2023-10-11T00:52:08.170Z,101434.06
2023-10-11T00:57:13.179Z,101436.72
2023-10-11T01:02:16.998Z,101429.63
2023-10-11T01:07:22.146Z,101425.22
2023-10-11T01:12:25.164Z,101434.94
2023-10-11T01:17:32.895Z,101422.44
2023-10-11T01:22:37.704Z,101411.00
2023-10-11T01:27:41.531Z,101410.09
2023-10-11T01:32:44.585Z,101408.31
2023-10-11T01:37:49.967Z,101401.19
2023-10-11T01:42:53.216Z,101394.94
2023-10-11T01:47:58.055Z,101389.63
2023-10-11T01:53:04.855Z,101392.22
2023-10-11T01:58:13.961Z,101399.25
2023-10-11T02:03:17.388Z,101386.84
2023-10-11T02:08:22.017Z,101383.16
2023-10-11T02:13:25.096Z,101373.31
2023-10-11T02:18:28.332Z,101377.72
2023-10-11T02:23:38.849Z,101360.75
2023-10-11T02:28:42.277Z,101355.44
2023-10-11T02:33:45.488Z,101344.81
2023-10-11T02:38:52.320Z,101344.78
2023-10-11T02:43:59.008Z,101343.78
2023-10-11T02:49:07.287Z,101341.94
2023-10-11T02:54:15.819Z,101348.06
2023-10-11T02:59:24.133Z,101344.53
2023-10-11T03:04:30.456Z,101346.09
2023-10-11T03:09:37.172Z,101345.19
2023-10-11T03:14:43.281Z,101342.53
2023-10-11T03:19:46.599Z,101337.16
2023-10-11T03:25:01.433Z,101323.84
2023-10-11T03:30:13.016Z,101329.97
2023-10-11T03:35:20.518Z,101322.88
2023-10-11T03:40:35.449Z,101308.66
2023-10-11T03:45:38.734Z,101307.75
2023-10-11T03:50:49.134Z,101309.47
2023-10-11T03:55:54.713Z,101303.19
2023-10-11T04:01:02.242Z,101294.28
2023-10-11T04:06:15.445Z,101303.19
2023-10-11T04:11:20.715Z,101297.81
2023-10-11T04:16:24.910Z,101297.75
2023-10-11T04:21:39.444Z,101312.75
2023-10-11T04:26:52.687Z,101310.84
2023-10-11T04:32:11.283Z,101302.91
2023-10-11T04:37:20.306Z,101311.84
2023-10-11T04:42:29.167Z,101315.41
2023-10-11T04:47:51.919Z,101311.97
2023-10-11T04:52:57.669Z,101311.97
2023-10-11T04:58:08.401Z,101318.25
2023-10-11T05:03:11.919Z,101327.06
2023-10-11T05:08:22.376Z,101336.81
2023-10-11T05:13:37.615Z,101317.38
2023-10-11T05:18:40.651Z,101323.53
2023-10-11T05:23:53.893Z,101318.19
2023-10-11T05:29:10.677Z,101317.28
2023-10-11T05:34:47.801Z,101323.53
2023-10-11T05:40:08.416Z,101318.25
2023-10-11T05:45:30.556Z,101318.31
2023-10-11T05:50:51.422Z,101315.66
2023-10-11T05:55:55.185Z,101306.81
2023-10-11T06:01:00.470Z,101323.66
2023-10-11T06:06:12.440Z,101328.09
2023-10-11T06:11:16.724Z,101323.69
2023-10-11T06:16:38.284Z,101324.69
2023-10-11T06:21:57.628Z,101307.06
2023-10-11T06:27:33.844Z,101319.47
2023-10-11T06:32:38.349Z,101337.25
2023-10-11T06:37:41.507Z,101351.56
2023-10-11T06:42:44.863Z,101341.03
2023-10-11T06:47:51.746Z,101349.06
2023-10-11T06:52:55.184Z,101361.53
2023-10-11T06:57:58.628Z,101366.06
2023-10-11T07:03:23.568Z,101343.13
2023-10-11T07:08:34.143Z,101341.53
2023-10-11T07:13:51.247Z,101346.94
2023-10-11T07:18:58.350Z,101352.34
2023-10-11T07:24:21.092Z,101354.13
2023-10-11T07:29:25.226Z,101359.44
2023-10-11T07:34:30.821Z,101380.72
2023-10-11T07:39:36.266Z,101387.84
2023-10-11T07:44:41.349Z,101394.03
2023-10-11T07:49:46.519Z,101394.16
2023-10-11T07:54:53.085Z,101401.41
2023-10-11T07:59:56.257Z,101397.97
2023-10-11T08:05:02.052Z,101390.91
2023-10-11T08:10:25.328Z,101384.06
2023-10-11T08:15:28.886Z,101386.91
2023-10-11T08:20:35.439Z,101393.28
2023-10-11T08:25:41.034Z,101383.66
2023-10-11T08:30:47.864Z,101393.53
2023-10-11T08:35:54.526Z,101401.41
2023-10-11T08:41:00.269Z,101410.25
2023-10-11T08:46:07.288Z,101405.91
2023-10-11T08:51:15.964Z,101403.25
2023-10-11T08:56:19.170Z,101392.63
2023-10-11T09:01:25.949Z,101403.38
2023-10-11T09:06:33.197Z,101411.38
2023-10-11T09:11:36.486Z,101399.00
2023-10-11T09:16:39.766Z,101389.31
2023-10-11T09:21:44.302Z,101397.41
2023-10-11T09:26:51.797Z,101393.97
2023-10-11T09:32:00.024Z,101412.72
2023-10-11T09:37:05.078Z,101416.38
2023-10-11T09:42:12.776Z,101410.25
2023-10-11T09:47:18.768Z,101405.09
2023-10-11T09:52:25.988Z,101399.09
2023-10-11T09:57:36.037Z,101411.69
2023-10-11T10:02:46.217Z,101422.28
2023-10-11T10:07:53.617Z,101432.78
2023-10-11T10:13:01.086Z,101433.75
2023-10-11T10:18:21.774Z,101428.44
2023-10-11T10:23:31.002Z,101448.03
2023-10-11T10:28:53.659Z,101433.22
2023-10-11T10:34:26.221Z,101427.16
2023-10-11T10:39:47.951Z,101427.31
2023-10-11T10:44:55.413Z,101405.38
2023-10-11T10:50:04.867Z,101407.34
2023-10-11T10:55:10.468Z,101412.88
2023-10-11T11:00:24.309Z,101399.69
2023-10-11T11:05:32.737Z,101380.19
2023-10-11T11:10:38.944Z,101383.78
2023-10-11T11:15:45.604Z,101356.28
2023-10-11T11:20:52.689Z,101361.63
2023-10-11T11:25:59.697Z,101356.25
2023-10-11T11:31:11.266Z,101342.94
2023-10-11T11:36:34.798Z,101342.16
2023-10-11T11:41:40.664Z,101345.88
2023-10-11T11:46:43.815Z,101333.47
2023-10-11T11:51:47.189Z,101335.31
2023-10-11T11:56:55.880Z,101326.34
2023-10-11T12:02:01.049Z,101324.50
2023-10-11T12:07:06.857Z,101315.59
2023-10-11T12:12:12.336Z,101301.34
2023-10-11T12:17:15.622Z,101310.34
2023-10-11T12:22:23.480Z,101331.69
2023-10-11T12:27:28.424Z,101342.25
2023-10-11T12:32:34.804Z,101332.47
2023-10-11T12:37:41.414Z,101335.16
2023-10-11T12:42:47.380Z,101328.03
2023-10-11T12:47:50.543Z,101338.75
2023-10-11T12:52:55.461Z,101336.06
2023-10-11T12:58:00.238Z,101316.56
2023-10-11T13:03:17.275Z,101318.34
2023-10-11T13:08:25.617Z,101312.19
2023-10-11T13:13:30.161Z,101320.19
2023-10-11T13:18:38.842Z,101306.88
2023-10-11T13:23:44.964Z,101308.63
2023-10-11T13:28:50.038Z,101295.28
2023-10-11T13:33:54.833Z,101296.19
2023-10-11T13:38:58.054Z,101285.50
2023-10-11T13:44:04.564Z,101269.44
2023-10-11T13:49:25.780Z,101262.38
2023-10-11T13:54:37.714Z,101253.44
2023-10-11T13:59:47.443Z,101249.88
2023-10-11T14:04:57.956Z,101247.19
2023-10-11T14:10:02.300Z,101241.84
2023-10-11T14:15:09.517Z,101217.72
2023-10-11T14:20:21.129Z,101214.16
2023-10-11T14:25:25.860Z,101212.38
2023-10-11T14:30:30.758Z,101205.22
2023-10-11T14:35:38.871Z,101202.53
2023-10-11T14:40:47.963Z,101189.13
2023-10-11T14:45:52.710Z,101187.34
2023-10-11T14:50:56.176Z,101190.94
2023-10-11T14:56:04.802Z,101176.72
2023-10-11T15:01:09.768Z,101166.94
2023-10-11T15:06:13.915Z,101150.91
2023-10-11T15:11:25.183Z,101143.81
2023-10-11T15:16:29.886Z,101142.06
2023-10-11T15:21:36.166Z,101127.88
2023-10-11T15:26:39.610Z,101114.53
2023-10-11T15:31:44.230Z,101119.88
2023-10-11T15:36:47.524Z,101119.88
2023-10-11T15:41:53.485Z,101107.41
2023-10-11T15:46:59.008Z,101111.00
2023-10-11T15:52:02.536Z,101120.81
2023-10-11T15:57:06.280Z,101118.13
2023-10-11T16:02:13.333Z,101103.91
2023-10-11T16:07:18.317Z,101109.28
2023-10-11T16:12:21.558Z,101111.97
2023-10-11T16:17:26.157Z,101115.56
2023-10-11T16:22:29.252Z,101106.69
2023-10-11T16:27:35.610Z,101107.56
2023-10-11T16:32:40.383Z,101101.34
2023-10-11T16:37:44.859Z,101116.50
2023-10-11T16:42:49.377Z,101125.38
2023-10-11T16:47:53.911Z,101121.81
2023-10-11T16:52:57.132Z,101119.19
2023-10-11T16:58:00.900Z,101126.31
2023-10-11T17:03:07.922Z,101120.06
2023-10-11T17:08:13.524Z,101108.53
2023-10-11T17:13:17.274Z,101107.59
2023-10-11T17:18:22.040Z,101122.69
2023-10-11T17:23:26.878Z,101116.50
2023-10-11T17:28:30.116Z,101118.25
2023-10-11T17:33:36.480Z,101122.69
2023-10-11T17:38:40.874Z,101121.81
2023-10-11T17:43:44.241Z,101128.91
2023-10-11T17:48:49.522Z,101124.44
2023-10-11T17:53:52.592Z,101128.88
2023-10-11T17:59:02.777Z,101165.31
2023-10-11T18:04:08.051Z,101180.41
2023-10-11T18:09:13.916Z,101183.94
2023-10-11T18:14:17.208Z,101182.16
2023-10-11T18:19:21.997Z,101177.69
2023-10-11T18:24:25.602Z,101166.16
2023-10-11T18:29:29.188Z,101175.94
2023-10-11T18:34:34.397Z,101165.28
2023-10-11T18:39:37.619Z,101171.47
2023-10-11T18:44:51.722Z,101174.13
2023-10-11T18:49:57.989Z,101170.59
2023-10-11T18:55:01.567Z,101164.38
2023-10-11T19:00:12.596Z,101146.59
2023-10-11T19:05:21.251Z,101141.25
2023-10-11T19:10:26.985Z,101140.41
2023-10-11T19:15:30.934Z,101138.59
2023-10-11T19:20:36.315Z,101151.91
2023-10-11T19:25:39.678Z,101144.81
2023-10-11T19:30:44.436Z,101140.34
2023-10-11T19:35:49.016Z,101135.00
2023-10-11T19:40:52.547Z,101143.88
2023-10-11T19:45:55.821Z,101135.88
2023-10-11T19:51:05.923Z,101128.75
2023-10-11T19:56:25.074Z,101111.91
2023-10-11T20:01:37.553Z,101130.53
2023-10-11T20:06:42.550Z,101126.06
2023-10-11T20:11:46.006Z,101149.16
2023-10-11T20:16:49.193Z,101155.38
2023-10-11T20:21:53.838Z,101167.75
2023-10-11T20:26:57.746Z,101156.19
2023-10-11T20:32:01.278Z,101158.84
2023-10-11T20:37:06.036Z,101155.31
2023-10-11T20:42:10.676Z,101150.84
2023-10-11T20:47:14.128Z,101156.13
2023-10-11T20:52:19.712Z,101147.25
2023-10-11T20:57:24.524Z,101139.28
2023-10-11T21:02:28.857Z,101143.69
2023-10-11T21:07:33.586Z,101135.69
2023-10-11T21:12:37.135Z,101142.75
2023-10-11T21:17:44.403Z,101133.00
2023-10-11T21:22:49.399Z,101114.34
2023-10-11T21:27:54.110Z,101106.34
2023-10-11T21:32:58.558Z,101094.78
2023-10-11T21:38:04.042Z,101091.25
2023-10-11T21:43:13.285Z,101084.13
2023-10-11T21:48:18.163Z,101086.75
2023-10-11T21:53:23.373Z,101108.91
2023-10-11T21:58:31.178Z,101125.75
2023-10-11T22:03:34.546Z,101131.91
2023-10-11T22:08:39.126Z,101115.97
2023-10-11T22:13:42.596Z,101122.19
2023-10-11T22:18:45.694Z,101112.34
2023-10-11T22:23:50.478Z,101138.84
2023-10-11T22:28:53.735Z,101140.53
2023-10-11T22:33:56.939Z,101125.47
2023-10-11T22:39:02.324Z,101157.41
2023-10-11T22:44:05.642Z,101180.34
2023-10-11T22:49:08.881Z,101182.94
2023-10-11T22:54:14.568Z,101168.78
2023-10-11T22:59:18.526Z,101156.38
2023-10-11T23:04:21.920Z,101154.59
2023-10-11T23:09:29.491Z,101135.91
2023-10-11T23:14:33.070Z,101155.38
2023-10-11T23:19:42.734Z,101147.38
2023-10-11T23:24:47.316Z,101164.16
2023-10-11T23:29:50.351Z,101168.50
2023-10-11T23:34:54.552Z,101177.34
2023-10-11T23:40:22.224Z,101191.44
2023-10-11T23:45:33.337Z,101177.16
2023-10-11T23:50:38.858Z,101184.94
2023-10-11T23:55:43.624Z,101195.47
